Time;durP1;ratioP1;P1;durP2;ratioP2;P2;SDS_P1;SDS_P2;PMS_P1;PMS_P2;Temp;Humidity;BMP_temperature;BMP_pressure;BME280_temperature;BME280_humidity;BME280_pressure;Samples;Min_cycle;Max_cycle;Signal;HPM_P1;HPM_P2
2022/03/14 00:02:01;;;;;;;11.43;5.75;;;;;;;4.07;59.67;100637.53;4829855;29;20083;-77
2022/03/14 00:04:29;;;;;;;10.35;5.55;;;;;;;4.06;59.55;100630.63;4831469;29;20049;-77
2022/03/14 00:06:56;;;;;;;7.88;5.20;;;;;;;3.97;59.78;100621.75;4831807;29;20099;-79
2022/03/14 00:09:22;;;;;;;11.30;5.65;;;;;;;3.92;59.37;100619.91;4838636;29;20046;-79
2022/03/14 00:11:50;;;;;;;8.52;5.60;;;;;;;3.97;59.70;100620.06;4821297;29;20049;-77
2022/03/14 00:14:16;;;;;;;8.75;5.55;;;;;;;4.04;59.48;100626.28;4801444;29;20132;-78
2022/03/14 00:16:46;;;;;;;8.60;4.88;;;;;;;3.99;59.91;100617.53;4834342;29;20079;-78
2022/03/14 00:19:13;;;;;;;9.40;5.10;;;;;;;3.92;59.33;100622.47;4835948;29;20047;-78
2022/03/14 00:21:41;;;;;;;8.75;5.07;;;;;;;3.89;60.25;100624.09;4824624;29;20045;-81
2022/03/14 00:24:10;;;;;;;11.93;5.60;;;;;;;3.86;59.69;100619.69;4819401;29;20069;-79
2022/03/14 00:26:36;;;;;;;8.98;5.63;;;;;;;3.81;59.49;100610.97;4834934;29;20047;-81
2022/03/14 00:29:06;;;;;;;10.20;5.53;;;;;;;3.94;59.42;100639.69;4818182;29;20050;-79
2022/03/14 00:31:33;;;;;;;11.73;5.63;;;;;;;3.98;59.95;100633.81;4817257;29;20098;-76
2022/03/14 00:34:00;;;;;;;9.07;5.40;;;;;;;3.93;59.85;100625.94;4832345;29;20058;-80
2022/03/14 00:36:27;;;;;;;8.82;5.28;;;;;;;4.03;59.79;100634.84;4829703;29;20757;-78
2022/03/14 00:38:57;;;;;;;10.52;5.55;;;;;;;4.02;59.72;100636.50;4827260;29;20046;-79
2022/03/14 00:41:51;;;;;;;8.70;5.68;;;;;;;4.05;59.20;100641.75;4840316;29;20042;-76
2022/03/14 00:44:18;;;;;;;9.35;5.55;;;;;;;3.94;59.77;100637.09;4834558;29;20050;-78
2022/03/14 00:46:44;;;;;;;9.55;6.05;;;;;;;3.94;59.41;100632.84;4819708;29;20053;-79
2022/03/14 00:49:11;;;;;;;9.23;5.32;;;;;;;3.92;59.73;100630.19;4820637;29;20057;-76
2022/03/14 00:51:38;;;;;;;10.85;5.40;;;;;;;3.90;59.32;100621.56;4816894;29;20054;-78
2022/03/14 00:54:04;;;;;;;9.52;5.25;;;;;;;3.92;59.57;100627.63;4832318;29;20051;-79
2022/03/14 00:56:31;;;;;;;9.18;5.75;;;;;;;3.84;59.47;100616.22;4819834;29;20046;-80
2022/03/14 00:59:00;;;;;;;10.02;5.78;;;;;;;3.94;59.77;100629.38;4802569;29;20112;-79
2022/03/14 01:01:27;;;;;;;10.20;5.40;;;;;;;4.01;59.77;100633.91;4796325;29;20078;-75
2022/03/14 01:03:54;;;;;;;10.95;5.15;;;;;;;4.09;59.07;100634.13;4810978;29;20128;-77
2022/03/14 01:06:21;;;;;;;11.23;5.32;;;;;;;4.06;59.45;100634.94;4809350;29;20038;-76
2022/03/14 01:08:47;;;;;;;8.00;5.20;;;;;;;4.03;59.52;100611.66;4843657;29;20046;-77
2022/03/14 01:11:14;;;;;;;7.63;4.95;;;;;;;4.07;58.91;100623.81;4837836;29;20182;-77
2022/03/14 01:13:40;;;;;;;8.77;5.30;;;;;;;4.13;59.52;100631.69;4819558;29;20062;-80
2022/03/14 01:16:06;;;;;;;8.15;4.97;;;;;;;4.13;59.60;100628.25;4819259;29;20057;-77
2022/03/14 01:18:33;;;;;;;9.20;5.43;;;;;;;4.14;59.14;100630.88;4818785;29;20065;-79
2022/03/14 01:20:59;;;;;;;9.98;5.38;;;;;;;4.11;59.04;100623.03;4799718;29;20533;-80
2022/03/14 01:23:26;;;;;;;9.52;5.18;;;;;;;4.18;59.42;100618.97;4819580;29;20038;-78
2022/03/14 01:25:52;;;;;;;8.73;5.30;;;;;;;4.14;59.68;100609.41;4832340;29;20468;-78
2022/03/14 01:28:18;;;;;;;10.73;5.05;;;;;;;4.13;59.38;100611.09;4816403;29;20047;-76
2022/03/14 01:30:44;;;;;;;7.68;5.30;;;;;;;4.10;59.48;100611.00;4830590;29;20046;-76
2022/03/14 01:33:12;;;;;;;10.65;5.50;;;;;;;4.14;59.35;100625.72;4800911;29;20058;-79
2022/03/14 01:35:40;;;;;;;7.03;5.03;;;;;;;4.20;59.52;100628.50;4802439;29;20042;-79
2022/03/14 01:38:06;;;;;;;8.93;5.38;;;;;;;4.22;58.92;100620.78;4796876;29;20054;-78
2022/03/14 01:40:32;;;;;;;9.40;5.72;;;;;;;4.20;58.85;100630.19;4813687;29;20073;-78
2022/03/14 01:42:59;;;;;;;8.18;4.93;;;;;;;4.10;58.71;100613.56;4831946;29;20043;-78
2022/03/14 01:45:25;;;;;;;9.48;5.72;;;;;;;4.21;58.90;100632.81;4818378;29;20054;-78
2022/03/14 01:47:52;;;;;;;9.25;5.10;;;;;;;4.15;59.38;100604.28;4817975;29;21189;-79
2022/03/14 01:50:19;;;;;;;9.90;5.40;;;;;;;4.28;58.71;100627.84;4832499;29;20042;-79
2022/03/14 01:52:46;;;;;;;9.02;4.80;;;;;;;4.14;58.91;100615.41;4821357;29;20143;-80
2022/03/14 01:55:16;;;;;;;8.73;5.13;;;;;;;4.24;58.95;100631.16;4818095;29;20730;-77
2022/03/14 01:57:43;;;;;;;10.00;5.45;;;;;;;4.20;58.79;100628.50;4834318;29;20058;-77
2022/03/14 02:00:12;;;;;;;8.02;5.25;;;;;;;4.11;58.87;100620.47;4823681;29;20042;-76
2022/03/14 02:02:41;;;;;;;10.55;5.60;;;;;;;4.10;59.00;100613.56;4817367;29;20065;-80
2022/03/14 02:05:07;;;;;;;8.07;5.22;;;;;;;4.22;59.01;100636.25;4830847;29;20452;-78
2022/03/14 02:07:34;;;;;;;9.50;5.28;;;;;;;4.21;58.66;100619.94;4831151;29;20073;-78
2022/03/14 02:10:00;;;;;;;8.98;5.13;;;;;;;4.23;58.98;100632.84;4800617;29;20068;-79
2022/03/14 02:12:26;;;;;;;8.73;5.10;;;;;;;4.19;58.72;100633.59;4795504;29;20047;-78
2022/03/14 02:14:53;;;;;;;7.88;5.22;;;;;;;4.26;59.07;100642.41;4817581;29;20470;-80
2022/03/14 02:17:20;;;;;;;8.48;5.28;;;;;;;4.35;58.88;100637.50;4825309;29;20084;-80
2022/03/14 02:19:48;;;;;;;10.38;5.55;;;;;;;4.39;58.79;100641.91;4831318;29;20516;-77
2022/03/14 02:22:14;;;;;;;10.90;5.55;;;;;;;4.40;59.22;100633.38;4815030;29;20045;-78
2022/03/14 02:24:46;;;;;;;10.05;5.15;;;;;;;4.35;58.90;100633.22;4816565;29;20050;-77
2022/03/14 02:27:15;;;;;;;9.90;5.65;;;;;;;4.41;58.48;100639.41;4808541;29;20046;-77
2022/03/14 02:29:42;;;;;;;6.85;4.78;;;;;;;4.31;58.61;100628.81;4833997;29;20046;-80
2022/03/14 02:32:10;;;;;;;8.73;5.43;;;;;;;4.31;58.16;100635.66;4831453;29;20169;-78
2022/03/14 02:34:37;;;;;;;11.02;5.68;;;;;;;4.35;58.58;100640.06;4831801;29;20083;-79
2022/03/14 02:37:04;;;;;;;9.82;5.32;;;;;;;4.35;58.18;100640.06;4832817;29;20054;-77
2022/03/14 02:39:32;;;;;;;8.48;5.05;;;;;;;4.27;58.60;100632.13;4819086;29;20435;-79
2022/03/14 02:41:59;;;;;;;8.43;5.68;;;;;;;4.41;58.43;100644.56;4819796;29;20050;-76
2022/03/14 02:44:25;;;;;;;10.07;5.63;;;;;;;4.39;58.60;100636.75;4819180;29;20042;-75
2022/03/14 02:46:51;;;;;;;9.45;5.43;;;;;;;4.43;58.42;100656.66;4818332;29;20097;-79
2022/03/14 02:49:17;;;;;;;7.75;5.30;;;;;;;4.24;57.69;100638.91;4834505;29;20065;-75
2022/03/14 02:51:46;;;;;;;8.90;5.18;;;;;;;4.38;58.33;100658.22;4818738;29;20077;-77
2022/03/14 02:54:12;;;;;;;7.90;5.00;;;;;;;4.42;58.62;100656.59;4818874;29;20078;-78
2022/03/14 02:56:40;;;;;;;8.32;5.43;;;;;;;4.26;58.05;100650.97;4818670;29;20050;-79
2022/03/14 02:59:10;;;;;;;11.02;5.68;;;;;;;4.24;58.40;100647.47;4835174;29;20046;-78
2022/03/14 03:01:36;;;;;;;9.55;5.65;;;;;;;4.24;58.34;100649.19;4803417;29;20086;-77
2022/03/14 03:04:04;;;;;;;10.05;5.15;;;;;;;4.26;58.76;100655.28;4816901;29;20503;-81
2022/03/14 03:06:32;;;;;;;9.65;5.70;;;;;;;4.32;58.98;100665.75;4818631;29;20175;-76
2022/03/14 03:09:00;;;;;;;9.77;5.57;;;;;;;4.31;58.58;100664.88;4819955;29;20134;-78
2022/03/14 03:11:26;;;;;;;10.35;5.45;;;;;;;4.22;58.60;100650.03;4819211;29;20150;-80
2022/03/14 03:13:54;;;;;;;8.38;5.63;;;;;;;4.31;58.72;100662.31;4816657;29;20778;-77
2022/03/14 03:16:22;;;;;;;8.65;5.50;;;;;;;4.40;58.95;100669.44;4831560;29;20617;-78
2022/03/14 03:18:48;;;;;;;8.75;5.22;;;;;;;4.38;58.56;100653.06;4818967;29;20518;-80
2022/03/14 03:21:16;;;;;;;8.70;5.47;;;;;;;4.44;58.21;100663.56;4817000;29;20046;-77
2022/03/14 03:23:43;;;;;;;10.27;5.70;;;;;;;4.33;58.03;100642.63;4817964;29;20494;-77
2022/03/14 03:26:11;;;;;;;10.55;6.03;;;;;;;4.45;58.43;100656.69;4818406;29;20073;-77
2022/03/14 03:28:37;;;;;;;10.20;5.68;;;;;;;4.35;58.06;100648.69;4824791;29;20578;-78
2022/03/14 03:31:03;;;;;;;10.43;5.28;;;;;;;4.43;58.50;100661.81;4835810;29;20511;-77
2022/03/14 03:33:29;;;;;;;8.90;5.70;;;;;;;4.43;58.54;100651.50;4849939;29;20057;-78
2022/03/14 03:35:55;;;;;;;8.23;5.57;;;;;;;4.36;58.96;100646.97;4847809;29;20054;-78
2022/03/14 03:38:21;;;;;;;10.82;5.82;;;;;;;4.34;58.12;100648.63;4844215;29;20194;-77
2022/03/14 03:40:47;;;;;;;10.35;6.40;;;;;;;4.39;58.47;100652.22;4835657;29;20398;-79
2022/03/14 03:43:14;;;;;;;8.13;5.85;;;;;;;4.44;58.27;100662.66;4832492;29;20586;-79
2022/03/14 03:45:40;;;;;;;8.30;5.68;;;;;;;4.34;58.72;100653.78;4804491;29;20058;-77
2022/03/14 03:48:06;;;;;;;10.27;5.55;;;;;;;4.50;58.45;100670.59;4818528;29;20134;-77
2022/03/14 03:50:32;;;;;;;9.07;5.55;;;;;;;4.53;58.82;100671.53;4832728;29;20053;-76
2022/03/14 03:52:58;;;;;;;9.50;5.80;;;;;;;4.56;58.70;100677.63;4819018;29;20506;-81
2022/03/14 03:55:24;;;;;;;10.85;5.63;;;;;;;4.56;58.16;100683.66;4825840;29;20074;-76
2022/03/14 03:57:50;;;;;;;8.77;5.90;;;;;;;4.58;58.33;100674.28;4832451;29;20050;-80
2022/03/14 04:00:16;;;;;;;7.85;5.43;;;;;;;4.50;58.44;100660.28;4824235;29;20057;-77
2022/03/14 04:02:44;;;;;;;12.00;6.13;;;;;;;4.56;58.86;100677.63;4824892;29;20043;-78
2022/03/14 04:05:12;;;;;;;10.35;6.20;;;;;;;4.59;58.33;100682.88;4820496;29;20054;-79
2022/03/14 04:07:40;;;;;;;12.07;5.80;;;;;;;4.65;58.19;100680.50;4832374;29;20046;-76
2022/03/14 04:10:06;;;;;;;9.52;6.35;;;;;;;4.68;58.10;100678.88;4801576;29;20058;-79
2022/03/14 04:12:32;;;;;;;11.23;5.93;;;;;;;4.65;58.48;100663.31;4819821;29;20054;-76
2022/03/14 04:14:59;;;;;;;10.93;6.28;;;;;;;4.78;58.31;100685.16;4818055;29;20106;-79
2022/03/14 04:17:25;;;;;;;12.75;7.13;;;;;;;4.74;57.73;100680.78;4833315;29;20045;-78
2022/03/14 04:19:52;;;;;;;12.90;7.15;;;;;;;4.77;58.31;100667.94;4817887;29;20184;-75
2022/03/14 04:22:19;;;;;;;12.48;7.03;;;;;;;4.85;58.32;100677.59;4832487;29;20050;-78
2022/03/14 04:24:45;;;;;;;10.15;6.80;;;;;;;4.80;57.87;100683.50;4817722;29;20051;-78
2022/03/14 04:27:11;;;;;;;13.07;7.15;;;;;;;4.78;58.23;100676.56;4817569;29;20130;-78
2022/03/14 04:29:38;;;;;;;12.10;6.88;;;;;;;4.79;58.76;100688.63;4815350;29;20038;-78
2022/03/14 04:32:04;;;;;;;13.52;7.72;;;;;;;4.83;57.74;100690.47;4824449;29;20480;-77
2022/03/14 04:34:31;;;;;;;14.23;8.20;;;;;;;4.92;58.40;100700.19;4824580;29;20053;-78
2022/03/14 04:36:58;;;;;;;13.88;8.35;;;;;;;4.94;57.98;100693.34;4835159;29;20095;-77
2022/03/14 04:39:25;;;;;;;15.35;8.07;;;;;;;4.91;58.27;100691.53;4829012;29;20049;-80
2022/03/14 04:41:51;;;;;;;17.20;8.23;;;;;;;4.77;58.10;100667.06;4830399;29;20065;-78
2022/03/14 04:44:19;;;;;;;13.48;8.27;;;;;;;4.93;57.96;100683.88;4851151;29;20042;-80
2022/03/14 04:46:45;;;;;;;13.98;8.10;;;;;;;4.93;57.38;100684.72;4851271;29;20043;-81
2022/03/14 04:49:13;;;;;;;13.43;8.02;;;;;;;4.95;58.15;100674.47;4830051;29;20042;-79
2022/03/14 04:51:42;;;;;;;16.30;8.27;;;;;;;5.05;57.92;100685.91;4823195;29;20525;-81
2022/03/14 04:54:10;;;;;;;15.10;8.47;;;;;;;5.07;58.04;100692.00;4824125;29;20057;-79
2022/03/14 04:56:36;;;;;;;13.23;8.25;;;;;;;5.03;57.96;100678.13;4824897;29;20303;-78
2022/03/14 04:59:03;;;;;;;14.88;8.35;;;;;;;5.06;57.92;100675.63;4838349;29;20042;-79
2022/03/14 05:01:29;;;;;;;13.75;8.25;;;;;;;5.13;57.92;100681.81;4813906;29;20042;-76
2022/03/14 05:03:55;;;;;;;15.05;8.10;;;;;;;5.25;57.68;100692.50;4825778;29;20110;-80
2022/03/14 05:06:21;;;;;;;17.50;8.70;;;;;;;5.33;57.44;100697.88;4825169;29;20050;-79
2022/03/14 05:08:48;;;;;;;15.10;8.13;;;;;;;5.26;57.51;100712.31;4822110;29;20047;-78
2022/03/14 05:11:14;;;;;;;16.27;9.27;;;;;;;5.20;57.38;100703.50;4831606;29;20223;-79
2022/03/14 05:13:44;;;;;;;20.10;9.85;;;;;;;5.19;57.95;100699.19;4831218;29;20411;-78
2022/03/14 05:16:10;;;;;;;15.27;8.07;;;;;;;5.21;57.30;100713.00;4834240;29;20468;-78
2022/03/14 05:18:37;;;;;;;11.98;6.88;;;;;;;5.06;57.52;100690.25;4820637;29;20102;-77
2022/03/14 05:21:03;;;;;;;13.98;7.25;;;;;;;5.10;57.46;100699.78;4818953;29;20046;-79
2022/03/14 05:23:29;;;;;;;12.60;6.60;;;;;;;5.04;57.94;100710.81;4819352;29;20043;-78
2022/03/14 05:25:56;;;;;;;12.20;7.10;;;;;;;4.92;57.30;100682.97;4832899;29;20050;-79
2022/03/14 05:28:24;;;;;;;12.77;6.70;;;;;;;4.99;57.01;100714.97;4818362;29;20053;-78
2022/03/14 05:30:50;;;;;;;12.35;7.05;;;;;;;4.86;57.64;100708.59;4817602;29;20098;-78
2022/03/14 05:33:16;;;;;;;11.25;6.80;;;;;;;4.91;57.69;100719.91;4817678;29;20158;-80
2022/03/14 05:35:42;;;;;;;12.43;6.75;;;;;;;5.05;58.19;100725.47;4812115;29;20054;-80
2022/03/14 05:38:08;;;;;;;14.85;7.70;;;;;;;5.13;57.17;100707.63;4817011;29;20558;-79
2022/03/14 05:40:34;;;;;;;15.10;7.80;;;;;;;5.26;57.51;100711.44;4832077;29;20063;-80
2022/03/14 05:43:05;;;;;;;11.05;7.13;;;;;;;5.28;57.61;100709.75;4810595;29;20046;-80
2022/03/14 05:45:32;;;;;;;13.27;8.02;;;;;;;5.18;56.69;100702.63;4816435;29;20050;-78
2022/03/14 05:47:58;;;;;;;14.55;7.38;;;;;;;5.29;57.45;100724.41;4831199;29;20144;-78
2022/03/14 05:50:25;;;;;;;13.70;7.47;;;;;;;5.28;56.47;100725.25;4831706;29;20442;-80
2022/03/14 05:52:53;;;;;;;11.25;7.15;;;;;;;5.26;56.94;100719.16;4817148;29;20046;-79
2022/03/14 05:55:19;;;;;;;11.98;7.20;;;;;;;5.22;56.91;100707.00;4817916;29;20686;-79
2022/03/14 05:57:45;;;;;;;11.57;6.80;;;;;;;5.42;56.61;100723.03;4816804;29;20049;-79
2022/03/14 06:00:12;;;;;;;9.82;6.10;;;;;;;5.52;56.87;100721.59;4785345;29;20054;-78
2022/03/14 06:02:46;;;;;;;11.77;6.63;;;;;;;5.62;56.25;100731.34;4817465;29;20042;-79
2022/03/14 06:05:14;;;;;;;12.55;6.25;;;;;;;5.71;56.86;100723.81;4829246;29;20814;-80
2022/03/14 06:07:41;;;;;;;12.57;5.78;;;;;;;5.83;56.20;100730.13;4816968;29;20042;-77
2022/03/14 06:10:08;;;;;;;11.15;5.75;;;;;;;6.03;55.08;100730.66;4810135;29;20051;-79
2022/03/14 06:12:38;;;;;;;10.35;5.18;;;;;;;6.08;55.14;100704.91;4830409;29;20090;-78
2022/03/14 06:15:14;;;;;;;12.15;5.03;;;;;;;5.79;54.57;100633.59;4805926;29;20066;-79
2022/03/14 06:17:48;;;;;;;7.25;5.15;;;;;;;6.17;54.18;100675.03;4806101;29;20132;-79
2022/03/14 06:20:23;;;;;;;7.60;4.70;;;;;;;6.60;53.61;100744.91;4802986;29;20756;-80
2022/03/14 06:22:49;;;;;;;8.50;4.38;;;;;;;6.48;52.88;100730.00;4818620;29;20046;-79
2022/03/14 06:28:29;;;;;;;7.72;4.30;;;;;;;6.40;52.31;100673.78;4815060;29;20058;-79
2022/03/14 06:30:56;;;;;;;9.52;4.13;;;;;;;6.85;52.01;100736.81;4834387;29;20046;-79
2022/03/14 06:33:24;;;;;;;5.63;3.50;;;;;;;6.70;51.38;100698.56;4821386;29;20054;-78
2022/03/14 06:35:52;;;;;;;5.13;3.72;;;;;;;7.07;51.14;100725.19;4801949;29;21385;-77
2022/03/14 06:38:18;;;;;;;5.28;3.45;;;;;;;7.37;49.88;100739.59;4819027;29;20046;-79
2022/03/14 06:40:44;;;;;;;5.07;3.05;;;;;;;7.50;49.60;100741.56;4833872;29;20118;-78
2022/03/14 06:43:11;;;;;;;4.32;3.17;;;;;;;8.86;49.69;100739.44;4805372;29;20042;-78
2022/03/14 06:45:40;;;;;;;6.43;2.83;;;;;;;10.04;47.72;100738.09;4793629;29;20049;-78
2022/03/14 06:48:06;;;;;;;6.45;2.90;;;;;;;10.38;45.72;100730.53;4843446;29;20050;-78
2022/03/14 06:50:36;;;;;;;3.80;2.83;;;;;;;12.17;45.06;100742.44;4834945;29;21094;-78
2022/03/14 06:53:03;;;;;;;4.45;2.97;;;;;;;13.35;42.83;100726.44;4826118;29;20070;-79
2022/03/14 06:55:29;;;;;;;5.97;3.22;;;;;;;13.91;40.77;100741.78;4834149;29;20050;-80
2022/03/14 06:57:55;;;;;;;4.25;3.22;;;;;;;14.02;39.34;100682.34;4827071;29;20054;-80
2022/03/14 07:00:22;;;;;;;7.55;2.83;;;;;;;14.25;38.33;100703.09;4821727;29;20472;-79
2022/03/14 07:02:50;;;;;;;3.58;2.60;;;;;;;14.61;37.85;100757.72;4834802;29;20714;-79
2022/03/14 07:05:20;;;;;;;5.05;3.00;;;;;;;14.14;36.53;100705.81;4803661;29;20746;-80
2022/03/14 07:07:49;;;;;;;5.13;3.15;;;;;;;13.57;37.04;100663.59;4819493;29;20212;-78
2022/03/14 07:10:21;;;;;;;5.82;2.83;;;;;;;14.20;35.97;100753.75;4834246;29;20046;-79
2022/03/14 07:12:49;;;;;;;5.07;2.90;;;;;;;13.87;34.77;100748.78;4803589;29;20135;-80
2022/03/14 07:15:21;;;;;;;5.18;3.10;;;;;;;13.72;35.48;100755.00;4819370;29;20050;-79
2022/03/14 07:17:50;;;;;;;4.65;2.90;;;;;;;13.70;35.56;100759.38;4824774;29;20519;-79
2022/03/14 07:20:20;;;;;;;5.35;2.83;;;;;;;13.33;35.00;100749.94;4821349;29;20067;-80
2022/03/14 07:22:54;;;;;;;5.55;2.47;;;;;;;12.91;34.95;100750.13;4819686;29;20212;-80
2022/03/14 07:25:29;;;;;;;2.85;2.10;;;;;;;12.45;34.98;100751.09;4824512;29;20053;-80
2022/03/14 07:27:58;;;;;;;4.32;2.15;;;;;;;11.99;34.68;100754.63;4811833;29;20038;-78
2022/03/14 07:30:25;;;;;;;4.47;2.30;;;;;;;11.69;35.04;100740.63;4803521;29;20049;-80
2022/03/14 07:32:55;;;;;;;4.05;2.35;;;;;;;11.12;34.45;100749.19;4833942;29;20091;-76
2022/03/14 07:35:26;;;;;;;4.65;2.22;;;;;;;11.00;34.93;100751.72;4816881;29;20046;-79
2022/03/14 07:37:53;;;;;;;3.28;2.30;;;;;;;11.06;35.31;100749.16;4820408;29;20097;-80
2022/03/14 07:40:20;;;;;;;2.80;2.35;;;;;;;11.22;34.33;100741.38;4821146;29;20399;-78
2022/03/14 07:42:48;;;;;;;4.05;2.10;;;;;;;11.77;34.26;100731.97;4818842;29;20082;-80
2022/03/14 07:45:21;;;;;;;4.18;1.80;;;;;;;12.10;33.33;100722.44;4817516;29;20046;-79
2022/03/14 07:47:47;;;;;;;4.13;2.05;;;;;;;12.29;32.70;100737.19;4817762;29;20046;-80
2022/03/14 07:50:15;;;;;;;5.53;1.95;;;;;;;12.49;32.31;100728.47;4819716;29;20803;-78
2022/03/14 07:52:43;;;;;;;3.03;1.85;;;;;;;12.60;32.18;100724.09;4834589;29;20057;-80
2022/03/14 07:55:10;;;;;;;6.18;1.90;;;;;;;12.93;31.64;100722.25;4824904;29;20053;-78
2022/03/14 07:57:38;;;;;;;5.18;2.20;;;;;;;13.06;31.07;100725.69;4817717;29;20090;-80
2022/03/14 08:00:09;;;;;;;5.15;2.05;;;;;;;13.13;30.75;100721.28;4833102;29;20054;-82
2022/03/14 08:02:42;;;;;;;4.22;2.22;;;;;;;13.68;30.43;100724.50;4832266;29;20050;-80
2022/03/14 08:05:13;;;;;;;4.00;2.10;;;;;;;14.45;30.57;100731.69;4811662;29;20104;-80
2022/03/14 08:07:41;;;;;;;3.15;2.15;;;;;;;14.65;29.89;100716.66;4819952;29;20050;-79
2022/03/14 08:10:09;;;;;;;6.43;2.30;;;;;;;14.63;29.46;100740.25;4817426;29;20050;-80
2022/03/14 08:12:49;;;;;;;7.22;3.15;;;;;;;14.48;29.51;100711.59;4811960;29;20049;-81
2022/03/14 08:15:26;;;;;;;4.90;2.92;;;;;;;14.36;29.50;100715.19;4835094;29;20180;-79
2022/03/14 08:17:58;;;;;;;4.30;2.63;;;;;;;15.45;29.66;100720.03;4819235;29;20047;-81
2022/03/14 08:20:26;;;;;;;6.20;2.88;;;;;;;16.55;28.06;100727.00;4832976;29;20077;-79
2022/03/14 08:22:55;;;;;;;4.88;3.83;;;;;;;17.42;27.49;100722.59;4796108;29;20156;-82
2022/03/14 08:25:23;;;;;;;5.30;2.58;;;;;;;17.57;26.50;100723.16;4819113;29;20046;-78
2022/03/14 08:27:53;;;;;;;5.32;3.00;;;;;;;16.68;26.38;100709.25;4836931;29;20046;-81
2022/03/14 08:30:23;;;;;;;8.70;5.70;;;;;;;16.94;26.52;100730.63;4843341;29;20061;-80
2022/03/14 08:32:57;;;;;;;4.57;2.80;;;;;;;17.18;26.62;100731.91;4803713;29;20058;-79
2022/03/14 08:35:25;;;;;;;4.13;2.72;;;;;;;18.26;25.74;100717.97;4818363;29;20050;-80
2022/03/14 08:38:00;;;;;;;7.32;3.40;;;;;;;18.21;25.15;100709.31;4817750;29;20046;-79
2022/03/14 08:40:30;;;;;;;6.18;3.05;;;;;;;19.60;25.07;100730.00;4812276;29;20058;-79
2022/03/14 08:43:13;;;;;;;4.07;3.20;;;;;;;19.74;23.80;100719.00;4836692;29;20046;-78
2022/03/14 08:45:48;;;;;;;3.70;2.63;;;;;;;20.01;23.98;100709.31;4821409;29;20038;-80
2022/03/14 08:48:17;;;;;;;3.28;2.40;;;;;;;19.68;23.74;100699.78;4824372;29;20558;-79
2022/03/14 08:50:43;;;;;;;3.85;2.08;;;;;;;20.98;22.86;100690.94;4817472;29;20186;-81
2022/03/14 08:53:09;;;;;;;3.17;2.00;;;;;;;20.95;22.10;100673.41;4818160;29;20073;-81
2022/03/14 08:55:35;;;;;;;2.08;1.75;;;;;;;21.26;22.11;100687.22;4818446;29;20054;-80
2022/03/14 08:58:05;;;;;;;4.38;2.00;;;;;;;21.13;21.53;100689.47;4821870;29;20270;-80
2022/03/14 09:01:12;;;;;;;3.22;1.70;;;;;;;22.30;21.04;100696.22;4813368;29;20027;-80
2022/03/14 09:03:42;;;;;;;3.72;1.98;;;;;;;22.67;20.87;100673.38;4820596;29;20058;-80
2022/03/14 09:06:11;;;;;;;6.22;2.25;;;;;;;22.64;20.06;100684.13;4819333;29;20061;-80
2022/03/14 09:08:42;;;;;;;3.53;2.22;;;;;;;21.66;20.67;100619.44;4792763;29;20053;-82
2022/03/14 09:11:12;;;;;;;4.38;2.30;;;;;;;21.99;20.17;100681.63;4823383;29;20046;-80
2022/03/14 09:13:41;;;;;;;7.13;4.07;;;;;;;23.88;20.45;100695.06;4817184;29;20042;-80
2022/03/14 09:16:08;;;;;;;5.35;2.47;;;;;;;25.79;18.84;100658.19;4826722;29;20466;-80
2022/03/14 09:18:36;;;;;;;3.50;2.75;;;;;;;26.49;18.92;100666.50;4834026;29;20049;-81
2022/03/14 09:21:02;;;;;;;4.00;2.20;;;;;;;27.72;17.46;100668.41;4822825;29;20145;-81
2022/03/14 09:23:50;;;;;;;2.20;1.80;;;;;;;26.99;17.02;100685.63;4823672;29;20445;-81
2022/03/14 09:26:16;;;;;;;3.75;2.10;;;;;;;25.24;17.16;100659.56;4823360;29;20055;-80
2022/03/14 09:28:48;;;;;;;4.78;2.30;;;;;;;25.41;17.62;100667.44;4833983;29;20057;-81
2022/03/14 09:31:14;;;;;;;3.15;1.83;;;;;;;26.44;17.31;100670.28;4817912;29;20662;-81
2022/03/14 09:33:41;;;;;;;4.43;2.50;;;;;;;26.11;16.61;100667.84;4832313;29;20054;-82
2022/03/14 09:36:10;;;;;;;3.08;2.42;;;;;;;27.34;16.42;100674.47;4816205;29;20053;-81
2022/03/14 09:38:36;;;;;;;3.10;2.22;;;;;;;27.94;16.48;100633.03;4810225;29;20121;-81
2022/03/14 09:41:04;;;;;;;3.78;2.17;;;;;;;29.29;16.09;100670.84;4815755;29;20456;-84
2022/03/14 09:43:36;;;;;;;4.25;2.60;;;;;;;30.35;15.41;100671.81;4818139;29;20051;-80
2022/03/14 09:46:05;;;;;;;3.53;2.60;;;;;;;31.20;14.63;100664.22;4818078;29;20141;-81
2022/03/14 09:48:37;;;;;;;3.20;2.13;;;;;;;31.06;14.34;100671.56;4821880;29;20046;-82
2022/03/14 09:51:07;;;;;;;3.10;2.30;;;;;;;30.81;14.50;100653.88;4829241;29;20061;-80
2022/03/14 09:53:37;;;;;;;2.58;2.10;;;;;;;31.46;14.00;100664.72;4823710;29;20070;-81
2022/03/14 09:56:03;;;;;;;3.67;1.95;;;;;;;31.92;13.82;100637.59;4820038;29;20209;-80
2022/03/14 09:58:30;;;;;;;4.50;2.33;;;;;;;31.62;13.16;100652.69;4820087;29;20061;-80
2022/03/14 10:01:02;;;;;;;5.00;2.03;;;;;;;31.18;13.54;100621.34;4836353;29;20054;-80
2022/03/14 10:03:28;;;;;;;3.55;1.90;;;;;;;32.32;12.88;100636.00;4812439;29;20045;-79
2022/03/14 10:05:55;;;;;;;3.25;2.00;;;;;;;33.15;12.85;100598.91;4848060;29;20136;-78
2022/03/14 10:08:22;;;;;;;2.33;2.10;;;;;;;33.17;12.85;100590.72;4813106;29;20516;-80
2022/03/14 10:10:51;;;;;;;2.83;2.58;;;;;;;33.12;12.35;100626.16;4807126;29;20055;-81
2022/03/14 10:13:18;;;;;;;3.05;2.55;;;;;;;33.13;12.35;100616.25;4824010;29;20074;-80
2022/03/14 10:15:45;;;;;;;3.80;2.78;;;;;;;32.15;12.07;100622.16;4831705;29;20050;-80
2022/03/14 10:18:18;;;;;;;2.50;2.00;;;;;;;29.48;12.42;100570.34;4819608;29;20057;-81
2022/03/14 10:21:50;;;;;;;5.07;2.25;;;;;;;28.41;13.23;100637.88;4822518;29;20069;-82
2022/03/14 10:25:24;;;;;;;3.80;2.08;;;;;;;24.49;14.89;100565.22;4797799;29;20047;-79
2022/03/14 10:27:57;;;;;;;3.10;2.10;;;;;;;23.06;15.88;100602.59;4765887;29;20066;-79
2022/03/14 10:30:33;;;;;;;3.55;2.22;;;;;;;22.12;16.61;100649.25;4799841;29;20050;-78
2022/03/14 10:33:08;;;;;;;3.70;2.08;;;;;;;21.10;16.93;100650.78;4819728;29;20522;-80
2022/03/14 10:35:42;;;;;;;3.40;2.00;;;;;;;19.52;17.74;100611.47;4819243;29;20046;-80
2022/03/14 10:38:11;;;;;;;2.95;1.80;;;;;;;18.73;18.47;100643.78;4820058;29;20077;-83
2022/03/14 10:40:39;;;;;;;2.35;2.00;;;;;;;17.44;19.03;100599.81;4805441;29;20080;-79
2022/03/14 10:43:20;;;;;;;2.45;1.70;;;;;;;16.91;19.78;100657.09;4836461;29;20133;-80
2022/03/14 10:45:52;;;;;;;3.55;1.95;;;;;;;16.07;20.41;100650.84;4835001;29;20063;-78
2022/03/14 10:48:32;;;;;;;3.88;2.10;;;;;;;15.50;20.54;100650.03;4836956;29;20074;-79
2022/03/14 10:51:03;;;;;;;2.10;1.65;;;;;;;15.29;21.25;100662.59;4835217;29;20042;-80
2022/03/14 10:53:29;;;;;;;3.78;1.88;;;;;;;14.93;21.83;100633.38;4784509;29;20038;-81
2022/03/14 10:56:00;;;;;;;3.17;2.17;;;;;;;14.79;22.20;100645.78;4835667;29;20046;-78
2022/03/14 10:58:35;;;;;;;6.25;4.93;;;;;;;14.16;22.65;100624.66;4834969;29;20046;-81
2022/03/14 11:01:06;;;;;;;3.15;1.88;;;;;;;13.95;22.81;100644.06;4842364;29;20530;-81
2022/03/14 11:03:37;;;;;;;3.83;2.10;;;;;;;13.35;23.22;100611.41;4831075;29;20074;-83
2022/03/14 11:06:19;;;;;;;2.85;2.20;;;;;;;13.10;24.00;100646.41;4838289;29;20042;-78
2022/03/14 11:08:51;;;;;;;3.88;2.10;;;;;;;12.96;24.35;100674.38;4804099;29;20237;-80
2022/03/14 11:11:20;;;;;;;6.00;2.30;;;;;;;12.13;24.51;100572.00;4823828;29;20179;-80
2022/03/14 11:13:53;;;;;;;5.07;2.13;;;;;;;12.37;24.56;100668.47;4828638;29;20436;-80
2022/03/14 11:16:23;;;;;;;4.50;2.40;;;;;;;11.92;25.34;100661.56;4827230;29;20057;-84
2022/03/14 11:18:51;;;;;;;3.55;2.30;;;;;;;11.61;25.65;100666.75;4818518;29;20368;-80
2022/03/14 11:21:19;;;;;;;4.53;2.38;;;;;;;11.38;26.04;100659.78;4829343;29;20527;-81
2022/03/14 11:24:16;;;;;;;4.60;2.70;;;;;;;10.99;26.45;100632.78;4830636;29;20042;-81
2022/03/14 11:27:42;;;;;;;6.43;2.70;;;;;;;10.78;26.87;100631.00;4829537;29;20064;-81
2022/03/14 11:30:11;;;;;;;3.90;2.42;;;;;;;10.93;26.96;100671.81;4844789;29;20046;-80
2022/03/14 11:32:38;;;;;;;3.67;2.20;;;;;;;10.75;27.54;100665.69;4841505;29;20065;-83
2022/03/14 11:35:36;;;;;;;6.32;2.35;;;;;;;10.66;27.50;100671.72;4829068;29;20077;-81
2022/03/14 11:38:03;;;;;;;3.50;2.10;;;;;;;9.92;27.87;100593.25;4823979;29;20049;-81
2022/03/14 11:40:31;;;;;;;3.80;2.53;;;;;;;10.18;27.80;100666.22;4814912;29;20042;-79